sensor_id;sensor_type;location;lat;lon;timestamp;P1;durP1;ratioP1;P2;durP2;ratioP2
19095;SDS011;9680;52.520;13.332;2024-01-11T00:01:37;17.90;;;6.63;;
19095;SDS011;9680;52.520;13.332;2024-01-11T00:04:04;23.10;;;7.40;;
19095;SDS011;9680;52.520;13.332;2024-01-11T00:06:31;19.80;;;7.40;;
19095;SDS011;9680;52.520;13.332;2024-01-11T00:08:57;21.33;;;6.87;;
19095;SDS011;9680;52.520;13.332;2024-01-11T00:11:24;26.70;;;7.37;;
19095;SDS011;9680;52.520;13.332;2024-01-11T00:13:51;21.17;;;7.17;;
19095;SDS011;9680;52.520;13.332;2024-01-11T00:16:18;20.27;;;7.23;;
19095;SDS011;9680;52.520;13.332;2024-01-11T00:18:46;22.30;;;6.50;;
19095;SDS011;9680;52.520;13.332;2024-01-11T00:21:13;21.23;;;6.10;;
19095;SDS011;9680;52.520;13.332;2024-01-11T00:23:39;13.87;;;5.00;;
19095;SDS011;9680;52.520;13.332;2024-01-11T00:26:07;13.50;;;5.07;;
19095;SDS011;9680;52.520;13.332;2024-01-11T00:28:33;19.20;;;5.70;;
19095;SDS011;9680;52.520;13.332;2024-01-11T00:31:00;13.17;;;4.60;;
19095;SDS011;9680;52.520;13.332;2024-01-11T00:33:27;17.37;;;5.43;;
19095;SDS011;9680;52.520;13.332;2024-01-11T00:35:55;15.23;;;5.47;;
19095;SDS011;9680;52.520;13.332;2024-01-11T00:38:21;20.23;;;5.63;;
19095;SDS011;9680;52.520;13.332;2024-01-11T00:40:48;18.67;;;6.83;;
19095;SDS011;9680;52.520;13.332;2024-01-11T00:43:15;21.70;;;6.03;;
19095;SDS011;9680;52.520;13.332;2024-01-11T00:45:41;19.47;;;5.37;;
19095;SDS011;9680;52.520;13.332;2024-01-11T00:48:08;15.93;;;5.23;;
19095;SDS011;9680;52.520;13.332;2024-01-11T00:50:35;18.53;;;5.60;;
19095;SDS011;9680;52.520;13.332;2024-01-11T00:53:03;21.40;;;5.53;;
19095;SDS011;9680;52.520;13.332;2024-01-11T00:55:30;13.67;;;4.60;;
19095;SDS011;9680;52.520;13.332;2024-01-11T00:57:56;16.57;;;5.33;;
19095;SDS011;9680;52.520;13.332;2024-01-11T01:00:23;16.90;;;4.20;;
19095;SDS011;9680;52.520;13.332;2024-01-11T01:02:50;15.47;;;4.93;;
19095;SDS011;9680;52.520;13.332;2024-01-11T01:05:16;15.60;;;4.13;;
19095;SDS011;9680;52.520;13.332;2024-01-11T01:07:43;16.53;;;5.00;;
19095;SDS011;9680;52.520;13.332;2024-01-11T01:10:12;15.13;;;4.97;;
19095;SDS011;9680;52.520;13.332;2024-01-11T01:12:39;17.93;;;4.23;;
19095;SDS011;9680;52.520;13.332;2024-01-11T01:15:06;12.80;;;4.67;;
19095;SDS011;9680;52.520;13.332;2024-01-11T01:17:33;13.43;;;4.90;;
19095;SDS011;9680;52.520;13.332;2024-01-11T01:20:00;17.53;;;5.30;;
19095;SDS011;9680;52.520;13.332;2024-01-11T01:22:28;17.23;;;5.17;;
19095;SDS011;9680;52.520;13.332;2024-01-11T01:24:55;15.47;;;5.17;;
19095;SDS011;9680;52.520;13.332;2024-01-11T01:27:23;14.20;;;3.80;;
19095;SDS011;9680;52.520;13.332;2024-01-11T01:29:50;10.83;;;4.10;;
19095;SDS011;9680;52.520;13.332;2024-01-11T01:32:17;10.30;;;3.90;;
19095;SDS011;9680;52.520;13.332;2024-01-11T01:34:44;10.73;;;3.53;;
19095;SDS011;9680;52.520;13.332;2024-01-11T01:37:11;10.57;;;4.00;;
19095;SDS011;9680;52.520;13.332;2024-01-11T01:39:38;10.97;;;3.93;;
19095;SDS011;9680;52.520;13.332;2024-01-11T01:42:05;13.33;;;3.70;;
19095;SDS011;9680;52.520;13.332;2024-01-11T01:44:33;15.60;;;4.33;;
19095;SDS011;9680;52.520;13.332;2024-01-11T01:47:00;14.07;;;4.13;;
19095;SDS011;9680;52.520;13.332;2024-01-11T01:49:29;12.70;;;4.97;;
19095;SDS011;9680;52.520;13.332;2024-01-11T01:51:55;22.73;;;5.60;;
19095;SDS011;9680;52.520;13.332;2024-01-11T01:54:22;12.40;;;4.40;;
19095;SDS011;9680;52.520;13.332;2024-01-11T01:56:50;15.23;;;4.43;;
19095;SDS011;9680;52.520;13.332;2024-01-11T01:59:19;18.90;;;5.83;;
19095;SDS011;9680;52.520;13.332;2024-01-11T02:01:50;12.57;;;4.70;;
19095;SDS011;9680;52.520;13.332;2024-01-11T02:04:17;15.83;;;4.47;;
19095;SDS011;9680;52.520;13.332;2024-01-11T02:06:45;12.67;;;3.70;;
19095;SDS011;9680;52.520;13.332;2024-01-11T02:09:13;11.10;;;3.77;;
19095;SDS011;9680;52.520;13.332;2024-01-11T02:11:41;13.90;;;3.50;;
19095;SDS011;9680;52.520;13.332;2024-01-11T02:14:08;11.63;;;4.00;;
19095;SDS011;9680;52.520;13.332;2024-01-11T02:16:36;9.53;;;2.93;;
19095;SDS011;9680;52.520;13.332;2024-01-11T02:19:04;11.67;;;3.83;;
19095;SDS011;9680;52.520;13.332;2024-01-11T02:21:33;9.50;;;3.07;;
19095;SDS011;9680;52.520;13.332;2024-01-11T02:24:04;14.97;;;3.40;;
19095;SDS011;9680;52.520;13.332;2024-01-11T02:26:32;13.50;;;3.20;;
19095;SDS011;9680;52.520;13.332;2024-01-11T02:28:59;27.97;;;4.33;;
19095;SDS011;9680;52.520;13.332;2024-01-11T02:31:26;20.53;;;2.63;;
19095;SDS011;9680;52.520;13.332;2024-01-11T02:33:54;11.33;;;3.63;;
19095;SDS011;9680;52.520;13.332;2024-01-11T02:36:21;19.67;;;4.43;;
19095;SDS011;9680;52.520;13.332;2024-01-11T02:38:48;38.27;;;4.60;;
19095;SDS011;9680;52.520;13.332;2024-01-11T02:41:18;10.00;;;3.33;;
19095;SDS011;9680;52.520;13.332;2024-01-11T02:43:46;11.20;;;3.60;;
19095;SDS011;9680;52.520;13.332;2024-01-11T02:46:14;12.10;;;3.67;;
19095;SDS011;9680;52.520;13.332;2024-01-11T02:48:41;18.40;;;4.70;;
19095;SDS011;9680;52.520;13.332;2024-01-11T02:51:07;11.87;;;3.93;;
19095;SDS011;9680;52.520;13.332;2024-01-11T02:53:34;12.70;;;4.10;;
19095;SDS011;9680;52.520;13.332;2024-01-11T02:56:01;15.60;;;3.57;;
19095;SDS011;9680;52.520;13.332;2024-01-11T02:58:29;13.90;;;4.27;;
19095;SDS011;9680;52.520;13.332;2024-01-11T03:00:56;24.90;;;4.13;;
19095;SDS011;9680;52.520;13.332;2024-01-11T03:03:23;11.70;;;3.67;;
19095;SDS011;9680;52.520;13.332;2024-01-11T03:05:50;13.67;;;4.00;;
19095;SDS011;9680;52.520;13.332;2024-01-11T03:08:16;9.60;;;2.80;;
19095;SDS011;9680;52.520;13.332;2024-01-11T03:10:43;15.07;;;4.50;;
19095;SDS011;9680;52.520;13.332;2024-01-11T03:13:10;17.20;;;3.90;;
19095;SDS011;9680;52.520;13.332;2024-01-11T03:15:39;16.80;;;4.13;;
19095;SDS011;9680;52.520;13.332;2024-01-11T03:18:06;10.63;;;3.27;;
19095;SDS011;9680;52.520;13.332;2024-01-11T03:20:33;7.43;;;2.77;;
19095;SDS011;9680;52.520;13.332;2024-01-11T03:22:59;15.27;;;4.47;;
19095;SDS011;9680;52.520;13.332;2024-01-11T03:25:26;11.13;;;3.17;;
19095;SDS011;9680;52.520;13.332;2024-01-11T03:27:55;10.80;;;3.53;;
19095;SDS011;9680;52.520;13.332;2024-01-11T03:30:22;8.13;;;2.60;;
19095;SDS011;9680;52.520;13.332;2024-01-11T03:32:50;13.20;;;3.33;;
19095;SDS011;9680;52.520;13.332;2024-01-11T03:35:17;12.73;;;3.10;;
19095;SDS011;9680;52.520;13.332;2024-01-11T03:37:44;15.57;;;3.57;;
19095;SDS011;9680;52.520;13.332;2024-01-11T03:40:11;10.23;;;3.30;;
19095;SDS011;9680;52.520;13.332;2024-01-11T03:42:39;11.43;;;3.80;;
19095;SDS011;9680;52.520;13.332;2024-01-11T03:45:06;13.13;;;3.47;;
19095;SDS011;9680;52.520;13.332;2024-01-11T03:47:33;16.00;;;3.70;;
19095;SDS011;9680;52.520;13.332;2024-01-11T03:50:01;9.53;;;3.23;;
19095;SDS011;9680;52.520;13.332;2024-01-11T03:52:29;12.67;;;3.73;;
19095;SDS011;9680;52.520;13.332;2024-01-11T03:54:55;9.07;;;3.70;;
19095;SDS011;9680;52.520;13.332;2024-01-11T03:57:22;10.77;;;3.37;;
19095;SDS011;9680;52.520;13.332;2024-01-11T03:59:49;7.87;;;2.70;;
19095;SDS011;9680;52.520;13.332;2024-01-11T04:02:16;11.90;;;3.73;;
19095;SDS011;9680;52.520;13.332;2024-01-11T04:04:43;11.13;;;3.43;;
19095;SDS011;9680;52.520;13.332;2024-01-11T04:07:11;13.97;;;4.07;;
19095;SDS011;9680;52.520;13.332;2024-01-11T04:09:38;15.80;;;3.97;;
19095;SDS011;9680;52.520;13.332;2024-01-11T04:12:06;11.67;;;4.07;;
19095;SDS011;9680;52.520;13.332;2024-01-11T04:14:37;13.70;;;3.70;;
19095;SDS011;9680;52.520;13.332;2024-01-11T04:17:05;18.63;;;3.43;;
19095;SDS011;9680;52.520;13.332;2024-01-11T04:19:37;16.10;;;3.70;;
19095;SDS011;9680;52.520;13.332;2024-01-11T04:22:19;14.97;;;3.87;;
19095;SDS011;9680;52.520;13.332;2024-01-11T04:24:56;13.70;;;3.40;;
19095;SDS011;9680;52.520;13.332;2024-01-11T04:27:23;32.23;;;3.80;;
19095;SDS011;9680;52.520;13.332;2024-01-11T04:29:50;21.17;;;3.93;;
19095;SDS011;9680;52.520;13.332;2024-01-11T04:32:17;16.50;;;3.83;;
19095;SDS011;9680;52.520;13.332;2024-01-11T04:34:45;19.23;;;4.20;;
19095;SDS011;9680;52.520;13.332;2024-01-11T04:37:13;13.43;;;3.63;;
19095;SDS011;9680;52.520;13.332;2024-01-11T04:39:44;21.23;;;3.63;;
19095;SDS011;9680;52.520;13.332;2024-01-11T04:42:11;13.50;;;3.57;;
19095;SDS011;9680;52.520;13.332;2024-01-11T04:44:40;28.50;;;5.03;;
19095;SDS011;9680;52.520;13.332;2024-01-11T04:47:11;15.60;;;4.17;;
19095;SDS011;9680;52.520;13.332;2024-01-11T04:49:41;18.13;;;4.33;;
19095;SDS011;9680;52.520;13.332;2024-01-11T04:52:07;15.30;;;4.10;;
19095;SDS011;9680;52.520;13.332;2024-01-11T04:54:36;21.50;;;4.30;;
19095;SDS011;9680;52.520;13.332;2024-01-11T04:57:02;18.67;;;4.17;;
19095;SDS011;9680;52.520;13.332;2024-01-11T04:59:29;18.70;;;4.03;;
19095;SDS011;9680;52.520;13.332;2024-01-11T05:01:57;14.43;;;3.83;;
19095;SDS011;9680;52.520;13.332;2024-01-11T05:04:24;20.13;;;4.33;;
19095;SDS011;9680;52.520;13.332;2024-01-11T05:06:51;25.47;;;4.60;;
19095;SDS011;9680;52.520;13.332;2024-01-11T05:09:18;18.53;;;4.50;;
19095;SDS011;9680;52.520;13.332;2024-01-11T05:11:46;16.97;;;4.07;;
19095;SDS011;9680;52.520;13.332;2024-01-11T05:14:12;21.50;;;4.60;;
19095;SDS011;9680;52.520;13.332;2024-01-11T05:16:39;17.97;;;3.83;;
19095;SDS011;9680;52.520;13.332;2024-01-11T05:19:06;15.73;;;4.47;;
19095;SDS011;9680;52.520;13.332;2024-01-11T05:21:33;19.60;;;4.97;;
19095;SDS011;9680;52.520;13.332;2024-01-11T05:24:01;20.23;;;4.67;;
19095;SDS011;9680;52.520;13.332;2024-01-11T05:26:27;17.27;;;5.07;;
19095;SDS011;9680;52.520;13.332;2024-01-11T05:28:55;18.03;;;4.67;;
19095;SDS011;9680;52.520;13.332;2024-01-11T05:31:22;19.53;;;4.23;;
19095;SDS011;9680;52.520;13.332;2024-01-11T05:33:49;18.83;;;5.13;;
19095;SDS011;9680;52.520;13.332;2024-01-11T05:36:16;18.13;;;4.23;;
19095;SDS011;9680;52.520;13.332;2024-01-11T05:38:44;18.63;;;4.40;;
19095;SDS011;9680;52.520;13.332;2024-01-11T05:41:11;19.47;;;4.73;;
19095;SDS011;9680;52.520;13.332;2024-01-11T05:43:39;20.03;;;4.67;;
19095;SDS011;9680;52.520;13.332;2024-01-11T05:46:07;25.37;;;5.63;;
19095;SDS011;9680;52.520;13.332;2024-01-11T05:48:34;23.00;;;4.67;;
19095;SDS011;9680;52.520;13.332;2024-01-11T05:51:01;18.87;;;4.57;;
19095;SDS011;9680;52.520;13.332;2024-01-11T05:53:28;20.50;;;5.10;;
19095;SDS011;9680;52.520;13.332;2024-01-11T05:55:55;21.13;;;5.60;;
19095;SDS011;9680;52.520;13.332;2024-01-11T05:58:34;26.60;;;5.30;;
19095;SDS011;9680;52.520;13.332;2024-01-11T06:01:04;26.10;;;5.63;;
19095;SDS011;9680;52.520;13.332;2024-01-11T06:03:35;29.03;;;5.63;;
19095;SDS011;9680;52.520;13.332;2024-01-11T06:06:08;23.97;;;5.50;;
19095;SDS011;9680;52.520;13.332;2024-01-11T06:08:36;26.53;;;5.50;;
19095;SDS011;9680;52.520;13.332;2024-01-11T06:11:06;19.40;;;4.37;;
19095;SDS011;9680;52.520;13.332;2024-01-11T06:13:34;20.30;;;4.97;;
19095;SDS011;9680;52.520;13.332;2024-01-11T06:16:05;26.20;;;5.50;;
19095;SDS011;9680;52.520;13.332;2024-01-11T06:18:33;27.30;;;5.50;;
19095;SDS011;9680;52.520;13.332;2024-01-11T06:21:01;26.73;;;5.60;;
19095;SDS011;9680;52.520;13.332;2024-01-11T06:23:28;17.73;;;5.00;;
19095;SDS011;9680;52.520;13.332;2024-01-11T06:25:55;21.90;;;5.03;;
19095;SDS011;9680;52.520;13.332;2024-01-11T06:28:22;24.97;;;5.57;;
19095;SDS011;9680;52.520;13.332;2024-01-11T06:30:55;22.53;;;5.80;;
19095;SDS011;9680;52.520;13.332;2024-01-11T06:33:27;20.20;;;5.30;;
19095;SDS011;9680;52.520;13.332;2024-01-11T06:35:54;26.00;;;5.70;;
19095;SDS011;9680;52.520;13.332;2024-01-11T06:38:23;22.67;;;5.13;;
19095;SDS011;9680;52.520;13.332;2024-01-11T06:40:50;27.10;;;5.57;;
19095;SDS011;9680;52.520;13.332;2024-01-11T06:43:17;21.10;;;5.70;;
19095;SDS011;9680;52.520;13.332;2024-01-11T06:45:43;22.47;;;5.53;;
19095;SDS011;9680;52.520;13.332;2024-01-11T06:48:12;19.43;;;6.10;;
19095;SDS011;9680;52.520;13.332;2024-01-11T06:50:46;22.40;;;6.63;;
19095;SDS011;9680;52.520;13.332;2024-01-11T06:53:28;26.60;;;6.10;;
19095;SDS011;9680;52.520;13.332;2024-01-11T06:55:55;23.93;;;5.90;;
19095;SDS011;9680;52.520;13.332;2024-01-11T06:58:22;27.07;;;6.13;;
19095;SDS011;9680;52.520;13.332;2024-01-11T07:00:49;32.27;;;6.23;;
19095;SDS011;9680;52.520;13.332;2024-01-11T07:03:16;25.50;;;6.73;;
19095;SDS011;9680;52.520;13.332;2024-01-11T07:05:43;25.07;;;6.20;;
19095;SDS011;9680;52.520;13.332;2024-01-11T07:08:10;28.63;;;6.17;;
19095;SDS011;9680;52.520;13.332;2024-01-11T07:10:38;26.63;;;6.53;;
19095;SDS011;9680;52.520;13.332;2024-01-11T07:13:05;24.10;;;6.17;;
19095;SDS011;9680;52.520;13.332;2024-01-11T07:15:32;28.90;;;6.27;;
19095;SDS011;9680;52.520;13.332;2024-01-11T07:17:58;34.53;;;7.03;;
19095;SDS011;9680;52.520;13.332;2024-01-11T07:20:25;32.37;;;7.20;;
19095;SDS011;9680;52.520;13.332;2024-01-11T07:22:52;32.07;;;6.53;;
19095;SDS011;9680;52.520;13.332;2024-01-11T07:25:18;26.03;;;6.90;;
19095;SDS011;9680;52.520;13.332;2024-01-11T07:27:47;35.73;;;7.90;;
19095;SDS011;9680;52.520;13.332;2024-01-11T07:30:13;36.17;;;6.77;;
19095;SDS011;9680;52.520;13.332;2024-01-11T07:32:40;29.03;;;6.83;;
19095;SDS011;9680;52.520;13.332;2024-01-11T07:35:08;28.83;;;7.23;;
19095;SDS011;9680;52.520;13.332;2024-01-11T07:37:36;26.67;;;6.40;;
19095;SDS011;9680;52.520;13.332;2024-01-11T07:40:03;32.67;;;7.50;;
19095;SDS011;9680;52.520;13.332;2024-01-11T07:42:35;26.27;;;6.13;;
19095;SDS011;9680;52.520;13.332;2024-01-11T07:45:03;29.60;;;7.37;;
19095;SDS011;9680;52.520;13.332;2024-01-11T07:47:31;35.83;;;6.67;;
19095;SDS011;9680;52.520;13.332;2024-01-11T07:49:58;32.70;;;6.87;;
19095;SDS011;9680;52.520;13.332;2024-01-11T07:52:25;35.03;;;7.47;;
19095;SDS011;9680;52.520;13.332;2024-01-11T07:54:51;26.10;;;6.50;;
19095;SDS011;9680;52.520;13.332;2024-01-11T07:57:19;38.17;;;6.93;;
19095;SDS011;9680;52.520;13.332;2024-01-11T07:59:45;34.83;;;7.27;;
19095;SDS011;9680;52.520;13.332;2024-01-11T08:02:13;36.83;;;7.67;;
19095;SDS011;9680;52.520;13.332;2024-01-11T08:04:41;35.73;;;7.73;;
19095;SDS011;9680;52.520;13.332;2024-01-11T08:07:08;35.83;;;7.87;;
19095;SDS011;9680;52.520;13.332;2024-01-11T08:09:35;32.70;;;6.73;;
19095;SDS011;9680;52.520;13.332;2024-01-11T08:12:01;34.43;;;6.87;;
19095;SDS011;9680;52.520;13.332;2024-01-11T08:14:29;31.20;;;6.93;;
19095;SDS011;9680;52.520;13.332;2024-01-11T08:16:55;33.33;;;7.50;;
19095;SDS011;9680;52.520;13.332;2024-01-11T08:19:25;37.53;;;7.83;;
19095;SDS011;9680;52.520;13.332;2024-01-11T08:21:52;34.70;;;8.07;;
19095;SDS011;9680;52.520;13.332;2024-01-11T08:24:21;23.93;;;6.63;;
19095;SDS011;9680;52.520;13.332;2024-01-11T08:26:48;30.83;;;7.23;;
19095;SDS011;9680;52.520;13.332;2024-01-11T08:29:15;41.47;;;7.30;;
19095;SDS011;9680;52.520;13.332;2024-01-11T08:31:44;36.50;;;6.97;;
19095;SDS011;9680;52.520;13.332;2024-01-11T08:34:11;32.63;;;7.60;;
19095;SDS011;9680;52.520;13.332;2024-01-11T08:36:39;39.27;;;7.70;;
19095;SDS011;9680;52.520;13.332;2024-01-11T08:39:06;33.13;;;7.33;;
19095;SDS011;9680;52.520;13.332;2024-01-11T08:41:33;29.93;;;6.93;;
19095;SDS011;9680;52.520;13.332;2024-01-11T08:44:01;36.50;;;7.53;;
19095;SDS011;9680;52.520;13.332;2024-01-11T08:46:28;58.63;;;7.93;;
19095;SDS011;9680;52.520;13.332;2024-01-11T08:48:56;34.43;;;7.03;;
19095;SDS011;9680;52.520;13.332;2024-01-11T08:51:22;33.53;;;7.43;;
19095;SDS011;9680;52.520;13.332;2024-01-11T08:53:50;38.27;;;7.67;;
19095;SDS011;9680;52.520;13.332;2024-01-11T08:56:18;37.57;;;7.93;;
19095;SDS011;9680;52.520;13.332;2024-01-11T08:58:45;33.07;;;8.50;;
19095;SDS011;9680;52.520;13.332;2024-01-11T09:01:11;45.00;;;8.17;;
19095;SDS011;9680;52.520;13.332;2024-01-11T09:03:38;35.37;;;8.10;;
19095;SDS011;9680;52.520;13.332;2024-01-11T09:06:05;39.47;;;8.63;;
19095;SDS011;9680;52.520;13.332;2024-01-11T09:08:32;32.13;;;7.63;;
19095;SDS011;9680;52.520;13.332;2024-01-11T09:11:00;35.53;;;7.90;;
19095;SDS011;9680;52.520;13.332;2024-01-11T09:13:27;36.37;;;8.47;;
19095;SDS011;9680;52.520;13.332;2024-01-11T09:15:54;36.17;;;8.83;;
19095;SDS011;9680;52.520;13.332;2024-01-11T09:18:21;30.67;;;7.43;;
19095;SDS011;9680;52.520;13.332;2024-01-11T09:20:48;33.77;;;8.13;;
19095;SDS011;9680;52.520;13.332;2024-01-11T09:23:15;40.97;;;8.50;;
19095;SDS011;9680;52.520;13.332;2024-01-11T09:25:43;30.83;;;7.60;;
19095;SDS011;9680;52.520;13.332;2024-01-11T09:28:11;36.17;;;8.07;;
19095;SDS011;9680;52.520;13.332;2024-01-11T09:30:38;31.63;;;8.17;;
19095;SDS011;9680;52.520;13.332;2024-01-11T09:33:05;31.33;;;8.13;;
19095;SDS011;9680;52.520;13.332;2024-01-11T09:35:32;28.20;;;7.70;;
19095;SDS011;9680;52.520;13.332;2024-01-11T09:37:59;31.93;;;8.33;;
19095;SDS011;9680;52.520;13.332;2024-01-11T09:40:26;35.77;;;8.60;;
19095;SDS011;9680;52.520;13.332;2024-01-11T09:42:53;35.27;;;8.67;;
19095;SDS011;9680;52.520;13.332;2024-01-11T09:45:21;31.50;;;7.70;;
19095;SDS011;9680;52.520;13.332;2024-01-11T09:47:48;29.67;;;7.53;;
19095;SDS011;9680;52.520;13.332;2024-01-11T09:50:17;27.40;;;7.37;;
19095;SDS011;9680;52.520;13.332;2024-01-11T09:52:45;34.63;;;8.47;;
19095;SDS011;9680;52.520;13.332;2024-01-11T09:55:13;30.23;;;8.57;;
19095;SDS011;9680;52.520;13.332;2024-01-11T09:57:40;36.27;;;7.00;;
19095;SDS011;9680;52.520;13.332;2024-01-11T10:00:10;43.37;;;8.50;;
19095;SDS011;9680;52.520;13.332;2024-01-11T10:02:45;30.87;;;7.70;;
19095;SDS011;9680;52.520;13.332;2024-01-11T10:05:12;39.17;;;9.53;;
19095;SDS011;9680;52.520;13.332;2024-01-11T10:07:40;30.80;;;8.40;;
19095;SDS011;9680;52.520;13.332;2024-01-11T10:10:07;41.80;;;9.30;;
19095;SDS011;9680;52.520;13.332;2024-01-11T10:12:34;39.50;;;8.97;;
19095;SDS011;9680;52.520;13.332;2024-01-11T10:15:04;38.03;;;8.57;;
19095;SDS011;9680;52.520;13.332;2024-01-11T10:17:34;41.07;;;9.93;;
19095;SDS011;9680;52.520;13.332;2024-01-11T10:20:03;42.60;;;9.87;;
19095;SDS011;9680;52.520;13.332;2024-01-11T10:22:31;39.20;;;9.73;;
19095;SDS011;9680;52.520;13.332;2024-01-11T10:25:09;44.80;;;11.20;;
19095;SDS011;9680;52.520;13.332;2024-01-11T10:27:37;35.83;;;9.73;;
19095;SDS011;9680;52.520;13.332;2024-01-11T10:30:04;41.73;;;9.13;;
19095;SDS011;9680;52.520;13.332;2024-01-11T10:32:32;39.17;;;9.50;;
19095;SDS011;9680;52.520;13.332;2024-01-11T10:34:59;35.67;;;9.20;;
19095;SDS011;9680;52.520;13.332;2024-01-11T10:37:30;40.87;;;8.77;;
19095;SDS011;9680;52.520;13.332;2024-01-11T10:39:57;35.03;;;10.00;;
19095;SDS011;9680;52.520;13.332;2024-01-11T10:42:29;54.00;;;14.70;;
19095;SDS011;9680;52.520;13.332;2024-01-11T10:44:58;40.10;;;10.20;;
19095;SDS011;9680;52.520;13.332;2024-01-11T10:47:30;37.87;;;9.43;;
19095;SDS011;9680;52.520;13.332;2024-01-11T10:49:57;38.30;;;9.80;;
19095;SDS011;9680;52.520;13.332;2024-01-11T10:52:34;45.10;;;9.47;;
19095;SDS011;9680;52.520;13.332;2024-01-11T10:55:09;45.67;;;9.37;;
19095;SDS011;9680;52.520;13.332;2024-01-11T10:57:36;31.30;;;8.43;;
19095;SDS011;9680;52.520;13.332;2024-01-11T11:00:05;33.30;;;8.57;;
19095;SDS011;9680;52.520;13.332;2024-01-11T11:02:36;31.07;;;8.53;;
19095;SDS011;9680;52.520;13.332;2024-01-11T11:05:05;31.10;;;9.07;;
19095;SDS011;9680;52.520;13.332;2024-01-11T11:07:36;34.70;;;8.37;;
19095;SDS011;9680;52.520;13.332;2024-01-11T11:10:04;36.43;;;9.53;;
19095;SDS011;9680;52.520;13.332;2024-01-11T11:12:34;34.93;;;9.20;;
19095;SDS011;9680;52.520;13.332;2024-01-11T11:15:04;35.00;;;9.23;;
19095;SDS011;9680;52.520;13.332;2024-01-11T11:17:31;37.77;;;8.90;;
19095;SDS011;9680;52.520;13.332;2024-01-11T11:19:58;36.63;;;9.00;;
19095;SDS011;9680;52.520;13.332;2024-01-11T11:22:26;32.93;;;8.00;;
19095;SDS011;9680;52.520;13.332;2024-01-11T11:25:03;32.33;;;8.10;;
19095;SDS011;9680;52.520;13.332;2024-01-11T11:27:33;32.83;;;7.97;;
19095;SDS011;9680;52.520;13.332;2024-01-11T11:29:59;33.97;;;8.27;;
19095;SDS011;9680;52.520;13.332;2024-01-11T11:32:35;33.50;;;8.00;;
19095;SDS011;9680;52.520;13.332;2024-01-11T11:35:03;30.53;;;7.53;;
19095;SDS011;9680;52.520;13.332;2024-01-11T11:37:31;28.60;;;7.30;;
19095;SDS011;9680;52.520;13.332;2024-01-11T11:39:58;26.37;;;7.43;;
19095;SDS011;9680;52.520;13.332;2024-01-11T11:42:26;29.97;;;8.13;;
19095;SDS011;9680;52.520;13.332;2024-01-11T11:44:56;21.20;;;7.07;;
19095;SDS011;9680;52.520;13.332;2024-01-11T11:47:23;27.53;;;7.47;;
19095;SDS011;9680;52.520;13.332;2024-01-11T11:49:57;36.47;;;8.77;;
19095;SDS011;9680;52.520;13.332;2024-01-11T11:52:25;25.90;;;7.03;;
19095;SDS011;9680;52.520;13.332;2024-01-11T11:54:52;23.57;;;7.43;;
19095;SDS011;9680;52.520;13.332;2024-01-11T11:57:20;25.57;;;7.33;;
19095;SDS011;9680;52.520;13.332;2024-01-11T11:59:49;25.47;;;8.03;;
19095;SDS011;9680;52.520;13.332;2024-01-11T12:02:17;29.20;;;7.47;;
19095;SDS011;9680;52.520;13.332;2024-01-11T12:04:46;27.97;;;8.03;;
19095;SDS011;9680;52.520;13.332;2024-01-11T12:07:13;30.93;;;8.27;;
19095;SDS011;9680;52.520;13.332;2024-01-11T12:09:40;28.20;;;8.07;;
19095;SDS011;9680;52.520;13.332;2024-01-11T12:12:07;30.93;;;8.20;;
19095;SDS011;9680;52.520;13.332;2024-01-11T12:14:34;26.77;;;8.07;;
19095;SDS011;9680;52.520;13.332;2024-01-11T12:17:03;23.80;;;7.27;;
19095;SDS011;9680;52.520;13.332;2024-01-11T12:19:30;36.13;;;8.40;;
19095;SDS011;9680;52.520;13.332;2024-01-11T12:21:57;26.60;;;7.43;;
19095;SDS011;9680;52.520;13.332;2024-01-11T12:24:24;28.87;;;7.67;;
19095;SDS011;9680;52.520;13.332;2024-01-11T12:26:52;26.03;;;7.57;;
19095;SDS011;9680;52.520;13.332;2024-01-11T12:29:21;26.03;;;7.70;;
19095;SDS011;9680;52.520;13.332;2024-01-11T12:31:47;26.67;;;7.67;;
19095;SDS011;9680;52.520;13.332;2024-01-11T12:34:16;25.67;;;7.37;;
19095;SDS011;9680;52.520;13.332;2024-01-11T12:36:43;32.50;;;8.30;;
19095;SDS011;9680;52.520;13.332;2024-01-11T12:39:10;29.27;;;8.20;;
19095;SDS011;9680;52.520;13.332;2024-01-11T12:41:38;32.50;;;8.40;;
19095;SDS011;9680;52.520;13.332;2024-01-11T12:44:06;27.73;;;8.50;;
19095;SDS011;9680;52.520;13.332;2024-01-11T12:46:33;30.40;;;8.40;;
19095;SDS011;9680;52.520;13.332;2024-01-11T12:48:59;29.47;;;7.87;;
19095;SDS011;9680;52.520;13.332;2024-01-11T12:51:27;33.43;;;8.33;;
19095;SDS011;9680;52.520;13.332;2024-01-11T12:53:54;31.90;;;7.90;;
19095;SDS011;9680;52.520;13.332;2024-01-11T12:56:23;32.27;;;7.87;;
19095;SDS011;9680;52.520;13.332;2024-01-11T12:58:50;30.20;;;7.00;;
19095;SDS011;9680;52.520;13.332;2024-01-11T13:01:17;26.97;;;8.00;;
19095;SDS011;9680;52.520;13.332;2024-01-11T13:03:44;33.40;;;8.23;;
19095;SDS011;9680;52.520;13.332;2024-01-11T13:06:12;29.80;;;8.17;;
19095;SDS011;9680;52.520;13.332;2024-01-11T13:08:40;28.47;;;7.03;;
19095;SDS011;9680;52.520;13.332;2024-01-11T13:11:07;27.60;;;7.30;;
19095;SDS011;9680;52.520;13.332;2024-01-11T13:13:34;28.57;;;7.83;;
19095;SDS011;9680;52.520;13.332;2024-01-11T13:16:01;24.87;;;7.37;;
19095;SDS011;9680;52.520;13.332;2024-01-11T13:18:31;23.70;;;6.53;;
19095;SDS011;9680;52.520;13.332;2024-01-11T13:20:58;27.97;;;7.03;;
19095;SDS011;9680;52.520;13.332;2024-01-11T13:23:27;27.57;;;7.83;;
19095;SDS011;9680;52.520;13.332;2024-01-11T13:25:55;24.60;;;7.70;;
19095;SDS011;9680;52.520;13.332;2024-01-11T13:28:21;27.13;;;7.33;;
19095;SDS011;9680;52.520;13.332;2024-01-11T13:30:48;25.23;;;7.73;;
19095;SDS011;9680;52.520;13.332;2024-01-11T13:33:15;26.00;;;6.83;;
19095;SDS011;9680;52.520;13.332;2024-01-11T13:35:42;29.00;;;7.70;;
19095;SDS011;9680;52.520;13.332;2024-01-11T13:38:09;23.90;;;7.10;;
19095;SDS011;9680;52.520;13.332;2024-01-11T13:40:36;25.57;;;7.07;;
19095;SDS011;9680;52.520;13.332;2024-01-11T13:43:06;26.67;;;7.30;;
19095;SDS011;9680;52.520;13.332;2024-01-11T13:45:33;23.43;;;6.93;;
19095;SDS011;9680;52.520;13.332;2024-01-11T13:48:01;20.70;;;6.37;;
19095;SDS011;9680;52.520;13.332;2024-01-11T13:50:28;23.17;;;7.33;;
19095;SDS011;9680;52.520;13.332;2024-01-11T13:52:55;21.23;;;6.13;;
19095;SDS011;9680;52.520;13.332;2024-01-11T13:55:22;24.23;;;6.77;;
19095;SDS011;9680;52.520;13.332;2024-01-11T13:57:49;25.97;;;7.27;;
19095;SDS011;9680;52.520;13.332;2024-01-11T14:00:18;27.73;;;7.27;;
19095;SDS011;9680;52.520;13.332;2024-01-11T14:02:46;23.53;;;7.13;;
19095;SDS011;9680;52.520;13.332;2024-01-11T14:05:13;19.70;;;6.63;;
19095;SDS011;9680;52.520;13.332;2024-01-11T14:07:42;22.80;;;6.90;;
19095;SDS011;9680;52.520;13.332;2024-01-11T14:10:10;23.80;;;6.90;;
19095;SDS011;9680;52.520;13.332;2024-01-11T14:12:37;22.37;;;6.30;;
19095;SDS011;9680;52.520;13.332;2024-01-11T14:15:05;23.20;;;7.43;;
19095;SDS011;9680;52.520;13.332;2024-01-11T14:17:38;23.53;;;6.60;;
19095;SDS011;9680;52.520;13.332;2024-01-11T14:20:05;27.83;;;7.63;;
19095;SDS011;9680;52.520;13.332;2024-01-11T14:22:36;23.53;;;6.30;;
19095;SDS011;9680;52.520;13.332;2024-01-11T14:25:03;26.57;;;7.57;;
19095;SDS011;9680;52.520;13.332;2024-01-11T14:27:31;26.97;;;7.43;;
19095;SDS011;9680;52.520;13.332;2024-01-11T14:29:57;24.53;;;6.83;;
19095;SDS011;9680;52.520;13.332;2024-01-11T14:32:24;18.27;;;6.07;;
19095;SDS011;9680;52.520;13.332;2024-01-11T14:34:53;22.57;;;7.57;;
19095;SDS011;9680;52.520;13.332;2024-01-11T14:37:20;22.23;;;6.03;;
19095;SDS011;9680;52.520;13.332;2024-01-11T14:39:47;21.47;;;7.07;;